sensor_id;sensor_type;location;lat;lon;timestamp;P1;durP1;ratioP1;P2;durP2;ratioP2
20393;SDS011;10356;50.544;9.642;2023-08-30T00:02:07;15.35;;;4.13;;
20393;SDS011;10356;50.544;9.642;2023-08-30T00:04:35;11.35;;;4.10;;
20393;SDS011;10356;50.544;9.642;2023-08-30T00:07:01;8.77;;;3.97;;
20393;SDS011;10356;50.544;9.642;2023-08-30T00:09:28;3.95;;;3.50;;
20393;SDS011;10356;50.544;9.642;2023-08-30T00:11:54;4.13;;;3.28;;
20393;SDS011;10356;50.544;9.642;2023-08-30T00:14:21;3.90;;;2.97;;
20393;SDS011;10356;50.544;9.642;2023-08-30T00:16:47;38.90;;;4.15;;
20393;SDS011;10356;50.544;9.642;2023-08-30T00:19:14;6.55;;;3.58;;
20393;SDS011;10356;50.544;9.642;2023-08-30T00:21:42;11.00;;;3.85;;
20393;SDS011;10356;50.544;9.642;2023-08-30T00:24:09;3.50;;;3.20;;
20393;SDS011;10356;50.544;9.642;2023-08-30T00:26:36;6.20;;;4.00;;
20393;SDS011;10356;50.544;9.642;2023-08-30T00:29:02;5.82;;;4.63;;
20393;SDS011;10356;50.544;9.642;2023-08-30T00:31:28;20.80;;;5.43;;
20393;SDS011;10356;50.544;9.642;2023-08-30T00:33:55;56.38;;;6.57;;
20393;SDS011;10356;50.544;9.642;2023-08-30T00:36:21;93.13;;;7.57;;
20393;SDS011;10356;50.544;9.642;2023-08-30T00:38:49;19.83;;;5.35;;
20393;SDS011;10356;50.544;9.642;2023-08-30T00:41:16;27.05;;;6.18;;
20393;SDS011;10356;50.544;9.642;2023-08-30T00:43:42;64.82;;;6.38;;
20393;SDS011;10356;50.544;9.642;2023-08-30T00:46:09;63.60;;;7.43;;
20393;SDS011;10356;50.544;9.642;2023-08-30T00:48:35;71.07;;;6.32;;
20393;SDS011;10356;50.544;9.642;2023-08-30T00:51:02;50.15;;;5.28;;
20393;SDS011;10356;50.544;9.642;2023-08-30T00:53:28;8.55;;;5.97;;
20393;SDS011;10356;50.544;9.642;2023-08-30T00:55:56;7.60;;;6.22;;
20393;SDS011;10356;50.544;9.642;2023-08-30T00:58:23;8.02;;;5.20;;
20393;SDS011;10356;50.544;9.642;2023-08-30T01:00:51;9.82;;;5.90;;
20393;SDS011;10356;50.544;9.642;2023-08-30T01:03:18;9.45;;;7.07;;
20393;SDS011;10356;50.544;9.642;2023-08-30T01:05:46;13.52;;;6.32;;
20393;SDS011;10356;50.544;9.642;2023-08-30T01:08:13;12.73;;;6.65;;
20393;SDS011;10356;50.544;9.642;2023-08-30T01:10:45;7.40;;;6.28;;
20393;SDS011;10356;50.544;9.642;2023-08-30T01:13:20;9.95;;;6.13;;
20393;SDS011;10356;50.544;9.642;2023-08-30T01:15:47;11.55;;;6.50;;
20393;SDS011;10356;50.544;9.642;2023-08-30T01:18:14;15.85;;;6.55;;
20393;SDS011;10356;50.544;9.642;2023-08-30T01:20:44;20.02;;;7.90;;
20393;SDS011;10356;50.544;9.642;2023-08-30T01:23:15;12.88;;;6.97;;
20393;SDS011;10356;50.544;9.642;2023-08-30T01:25:53;14.05;;;7.40;;
20393;SDS011;10356;50.544;9.642;2023-08-30T01:28:26;27.67;;;7.05;;
20393;SDS011;10356;50.544;9.642;2023-08-30T01:30:55;26.50;;;8.20;;
20393;SDS011;10356;50.544;9.642;2023-08-30T01:33:23;24.08;;;7.65;;
20393;SDS011;10356;50.544;9.642;2023-08-30T01:35:52;21.65;;;7.85;;
20393;SDS011;10356;50.544;9.642;2023-08-30T01:38:19;27.70;;;8.95;;
20393;SDS011;10356;50.544;9.642;2023-08-30T01:40:47;28.25;;;9.23;;
20393;SDS011;10356;50.544;9.642;2023-08-30T01:43:14;22.92;;;9.43;;
20393;SDS011;10356;50.544;9.642;2023-08-30T01:45:44;35.67;;;9.63;;
20393;SDS011;10356;50.544;9.642;2023-08-30T01:48:10;33.55;;;9.52;;
20393;SDS011;10356;50.544;9.642;2023-08-30T01:50:39;13.02;;;8.98;;
20393;SDS011;10356;50.544;9.642;2023-08-30T01:53:05;36.15;;;10.45;;
20393;SDS011;10356;50.544;9.642;2023-08-30T01:55:35;46.40;;;10.82;;
20393;SDS011;10356;50.544;9.642;2023-08-30T01:58:03;24.90;;;10.52;;
20393;SDS011;10356;50.544;9.642;2023-08-30T02:00:32;27.08;;;9.95;;
20393;SDS011;10356;50.544;9.642;2023-08-30T02:03:02;19.08;;;10.00;;
20393;SDS011;10356;50.544;9.642;2023-08-30T02:05:33;27.10;;;10.27;;
20393;SDS011;10356;50.544;9.642;2023-08-30T02:08:05;26.42;;;9.48;;
20393;SDS011;10356;50.544;9.642;2023-08-30T02:10:40;16.98;;;8.85;;
20393;SDS011;10356;50.544;9.642;2023-08-30T02:13:08;10.60;;;8.45;;
20393;SDS011;10356;50.544;9.642;2023-08-30T02:15:37;12.98;;;8.85;;
20393;SDS011;10356;50.544;9.642;2023-08-30T02:18:08;29.45;;;9.18;;
20393;SDS011;10356;50.544;9.642;2023-08-30T02:20:35;41.70;;;9.68;;
20393;SDS011;10356;50.544;9.642;2023-08-30T02:23:01;11.68;;;9.27;;
20393;SDS011;10356;50.544;9.642;2023-08-30T02:25:28;34.88;;;9.80;;
20393;SDS011;10356;50.544;9.642;2023-08-30T02:27:55;33.38;;;9.90;;
20393;SDS011;10356;50.544;9.642;2023-08-30T02:30:21;29.27;;;10.38;;
20393;SDS011;10356;50.544;9.642;2023-08-30T02:32:47;37.67;;;10.38;;
20393;SDS011;10356;50.544;9.642;2023-08-30T02:35:15;49.13;;;10.85;;
20393;SDS011;10356;50.544;9.642;2023-08-30T02:37:42;54.10;;;11.10;;
20393;SDS011;10356;50.544;9.642;2023-08-30T02:40:09;29.88;;;10.07;;
20393;SDS011;10356;50.544;9.642;2023-08-30T02:42:36;20.00;;;10.98;;
20393;SDS011;10356;50.544;9.642;2023-08-30T02:45:03;29.92;;;11.32;;
20393;SDS011;10356;50.544;9.642;2023-08-30T02:47:30;78.70;;;11.38;;
20393;SDS011;10356;50.544;9.642;2023-08-30T02:49:56;98.03;;;12.73;;
20393;SDS011;10356;50.544;9.642;2023-08-30T02:52:24;176.90;;;15.25;;
20393;SDS011;10356;50.544;9.642;2023-08-30T02:54:51;150.55;;;12.98;;
20393;SDS011;10356;50.544;9.642;2023-08-30T02:57:18;71.22;;;12.52;;
20393;SDS011;10356;50.544;9.642;2023-08-30T02:59:44;193.00;;;15.07;;
20393;SDS011;10356;50.544;9.642;2023-08-30T03:02:11;190.63;;;14.90;;
20393;SDS011;10356;50.544;9.642;2023-08-30T03:04:37;153.68;;;14.02;;
20393;SDS011;10356;50.544;9.642;2023-08-30T03:07:04;98.78;;;12.75;;
20393;SDS011;10356;50.544;9.642;2023-08-30T03:09:32;138.63;;;13.90;;
20393;SDS011;10356;50.544;9.642;2023-08-30T03:11:58;158.68;;;14.00;;
20393;SDS011;10356;50.544;9.642;2023-08-30T03:14:25;49.17;;;11.90;;
20393;SDS011;10356;50.544;9.642;2023-08-30T03:16:51;127.03;;;14.63;;
20393;SDS011;10356;50.544;9.642;2023-08-30T03:19:18;46.38;;;12.70;;
20393;SDS011;10356;50.544;9.642;2023-08-30T03:21:44;175.35;;;14.40;;
20393;SDS011;10356;50.544;9.642;2023-08-30T03:24:11;129.07;;;12.48;;
20393;SDS011;10356;50.544;9.642;2023-08-30T03:26:40;96.60;;;12.82;;
20393;SDS011;10356;50.544;9.642;2023-08-30T03:29:08;168.13;;;14.60;;
20393;SDS011;10356;50.544;9.642;2023-08-30T03:31:35;71.05;;;12.00;;
20393;SDS011;10356;50.544;9.642;2023-08-30T03:34:01;69.85;;;12.65;;
20393;SDS011;10356;50.544;9.642;2023-08-30T03:36:28;141.00;;;14.27;;
20393;SDS011;10356;50.544;9.642;2023-08-30T03:38:54;86.55;;;12.88;;
20393;SDS011;10356;50.544;9.642;2023-08-30T03:41:21;159.10;;;13.75;;
20393;SDS011;10356;50.544;9.642;2023-08-30T03:43:49;62.05;;;11.00;;
20393;SDS011;10356;50.544;9.642;2023-08-30T03:46:15;113.20;;;11.43;;
20393;SDS011;10356;50.544;9.642;2023-08-30T03:48:41;40.35;;;9.82;;
20393;SDS011;10356;50.544;9.642;2023-08-30T03:51:08;141.95;;;14.18;;
20393;SDS011;10356;50.544;9.642;2023-08-30T03:53:34;230.30;;;17.20;;
20393;SDS011;10356;50.544;9.642;2023-08-30T03:56:01;66.22;;;12.20;;
20393;SDS011;10356;50.544;9.642;2023-08-30T03:58:28;37.42;;;10.48;;
20393;SDS011;10356;50.544;9.642;2023-08-30T04:00:57;107.00;;;11.38;;
20393;SDS011;10356;50.544;9.642;2023-08-30T04:03:24;62.10;;;11.77;;
20393;SDS011;10356;50.544;9.642;2023-08-30T04:05:54;43.00;;;11.02;;
20393;SDS011;10356;50.544;9.642;2023-08-30T04:08:21;77.45;;;11.20;;
20393;SDS011;10356;50.544;9.642;2023-08-30T04:10:47;93.32;;;12.90;;
20393;SDS011;10356;50.544;9.642;2023-08-30T04:13:14;69.05;;;11.90;;
20393;SDS011;10356;50.544;9.642;2023-08-30T04:15:41;112.00;;;12.20;;
20393;SDS011;10356;50.544;9.642;2023-08-30T04:18:09;90.68;;;11.93;;
20393;SDS011;10356;50.544;9.642;2023-08-30T04:20:35;31.70;;;10.38;;
20393;SDS011;10356;50.544;9.642;2023-08-30T04:23:02;55.53;;;9.98;;
20393;SDS011;10356;50.544;9.642;2023-08-30T04:25:29;66.03;;;11.48;;
20393;SDS011;10356;50.544;9.642;2023-08-30T04:27:56;57.63;;;15.35;;
20393;SDS011;10356;50.544;9.642;2023-08-30T04:30:23;60.10;;;11.52;;
20393;SDS011;10356;50.544;9.642;2023-08-30T04:32:49;97.72;;;16.50;;
20393;SDS011;10356;50.544;9.642;2023-08-30T04:35:17;35.70;;;11.45;;
20393;SDS011;10356;50.544;9.642;2023-08-30T04:37:44;42.95;;;11.63;;
20393;SDS011;10356;50.544;9.642;2023-08-30T04:40:11;93.20;;;12.18;;
20393;SDS011;10356;50.544;9.642;2023-08-30T04:42:37;58.95;;;13.15;;
20393;SDS011;10356;50.544;9.642;2023-08-30T04:45:05;78.45;;;19.08;;
20393;SDS011;10356;50.544;9.642;2023-08-30T04:47:32;83.88;;;12.85;;
20393;SDS011;10356;50.544;9.642;2023-08-30T04:49:59;55.50;;;12.10;;
20393;SDS011;10356;50.544;9.642;2023-08-30T04:52:27;51.63;;;12.88;;
20393;SDS011;10356;50.544;9.642;2023-08-30T04:54:53;50.10;;;13.02;;
20393;SDS011;10356;50.544;9.642;2023-08-30T04:57:20;56.17;;;12.95;;
20393;SDS011;10356;50.544;9.642;2023-08-30T04:59:47;41.15;;;11.70;;
20393;SDS011;10356;50.544;9.642;2023-08-30T05:02:14;37.47;;;12.23;;
20393;SDS011;10356;50.544;9.642;2023-08-30T05:04:40;41.55;;;11.90;;
20393;SDS011;10356;50.544;9.642;2023-08-30T05:07:07;19.60;;;12.05;;
20393;SDS011;10356;50.544;9.642;2023-08-30T05:09:35;29.30;;;13.00;;
20393;SDS011;10356;50.544;9.642;2023-08-30T05:12:01;39.58;;;12.20;;
20393;SDS011;10356;50.544;9.642;2023-08-30T05:14:28;20.48;;;12.20;;
20393;SDS011;10356;50.544;9.642;2023-08-30T05:16:55;23.25;;;11.70;;
20393;SDS011;10356;50.544;9.642;2023-08-30T05:19:21;20.25;;;11.93;;
20393;SDS011;10356;50.544;9.642;2023-08-30T05:21:48;301.08;;;221.73;;
20393;SDS011;10356;50.544;9.642;2023-08-30T05:24:16;67.65;;;48.60;;
20393;SDS011;10356;50.544;9.642;2023-08-30T05:26:44;45.78;;;28.65;;
20393;SDS011;10356;50.544;9.642;2023-08-30T05:29:11;57.03;;;41.38;;
20393;SDS011;10356;50.544;9.642;2023-08-30T05:31:38;21.45;;;12.23;;
20393;SDS011;10356;50.544;9.642;2023-08-30T05:34:05;15.90;;;11.40;;
20393;SDS011;10356;50.544;9.642;2023-08-30T05:36:31;16.85;;;11.50;;
20393;SDS011;10356;50.544;9.642;2023-08-30T05:38:58;14.77;;;11.40;;
20393;SDS011;10356;50.544;9.642;2023-08-30T05:41:24;13.98;;;10.65;;
20393;SDS011;10356;50.544;9.642;2023-08-30T05:43:52;13.27;;;11.80;;
20393;SDS011;10356;50.544;9.642;2023-08-30T05:46:20;14.50;;;11.38;;
20393;SDS011;10356;50.544;9.642;2023-08-30T05:48:46;11.90;;;10.27;;
20393;SDS011;10356;50.544;9.642;2023-08-30T05:51:12;11.82;;;10.27;;
20393;SDS011;10356;50.544;9.642;2023-08-30T05:53:39;12.32;;;10.07;;
20393;SDS011;10356;50.544;9.642;2023-08-30T05:56:05;13.13;;;9.75;;
20393;SDS011;10356;50.544;9.642;2023-08-30T05:58:32;11.40;;;10.18;;
20393;SDS011;10356;50.544;9.642;2023-08-30T06:01:00;10.98;;;9.88;;
20393;SDS011;10356;50.544;9.642;2023-08-30T06:03:27;11.60;;;9.88;;
20393;SDS011;10356;50.544;9.642;2023-08-30T06:05:53;10.20;;;9.10;;
20393;SDS011;10356;50.544;9.642;2023-08-30T06:08:20;11.30;;;9.32;;
20393;SDS011;10356;50.544;9.642;2023-08-30T06:10:46;11.98;;;8.98;;
20393;SDS011;10356;50.544;9.642;2023-08-30T06:13:13;18.83;;;10.40;;
20393;SDS011;10356;50.544;9.642;2023-08-30T06:15:39;15.63;;;10.10;;
20393;SDS011;10356;50.544;9.642;2023-08-30T06:18:07;8.85;;;7.78;;
20393;SDS011;10356;50.544;9.642;2023-08-30T06:20:34;15.80;;;9.35;;
20393;SDS011;10356;50.544;9.642;2023-08-30T06:23:02;9.65;;;8.30;;
20393;SDS011;10356;50.544;9.642;2023-08-30T06:25:29;9.15;;;8.10;;
20393;SDS011;10356;50.544;9.642;2023-08-30T06:27:56;10.50;;;8.55;;
20393;SDS011;10356;50.544;9.642;2023-08-30T06:30:24;9.60;;;8.60;;
20393;SDS011;10356;50.544;9.642;2023-08-30T06:32:50;9.07;;;8.18;;
20393;SDS011;10356;50.544;9.642;2023-08-30T06:35:18;9.55;;;8.30;;
20393;SDS011;10356;50.544;9.642;2023-08-30T06:37:45;9.48;;;8.43;;
20393;SDS011;10356;50.544;9.642;2023-08-30T06:40:11;11.38;;;8.40;;
20393;SDS011;10356;50.544;9.642;2023-08-30T06:42:38;10.63;;;8.75;;
20393;SDS011;10356;50.544;9.642;2023-08-30T06:45:04;9.10;;;8.18;;
20393;SDS011;10356;50.544;9.642;2023-08-30T06:47:32;9.65;;;8.63;;
20393;SDS011;10356;50.544;9.642;2023-08-30T06:49:59;8.50;;;7.47;;
20393;SDS011;10356;50.544;9.642;2023-08-30T06:52:27;9.10;;;7.55;;
20393;SDS011;10356;50.544;9.642;2023-08-30T06:54:54;9.20;;;8.20;;
20393;SDS011;10356;50.544;9.642;2023-08-30T06:57:20;9.10;;;7.63;;
20393;SDS011;10356;50.544;9.642;2023-08-30T06:59:47;8.60;;;7.70;;
20393;SDS011;10356;50.544;9.642;2023-08-30T07:02:14;8.43;;;7.63;;
20393;SDS011;10356;50.544;9.642;2023-08-30T07:04:40;8.98;;;8.00;;
20393;SDS011;10356;50.544;9.642;2023-08-30T07:07:07;8.93;;;8.00;;
20393;SDS011;10356;50.544;9.642;2023-08-30T07:09:35;8.07;;;7.30;;
20393;SDS011;10356;50.544;9.642;2023-08-30T07:12:01;7.93;;;7.13;;
20393;SDS011;10356;50.544;9.642;2023-08-30T07:14:27;9.90;;;7.97;;
20393;SDS011;10356;50.544;9.642;2023-08-30T07:16:54;9.32;;;7.57;;
20393;SDS011;10356;50.544;9.642;2023-08-30T07:19:20;9.35;;;7.60;;
20393;SDS011;10356;50.544;9.642;2023-08-30T07:21:47;8.35;;;7.47;;
20393;SDS011;10356;50.544;9.642;2023-08-30T07:24:13;9.07;;;8.18;;
20393;SDS011;10356;50.544;9.642;2023-08-30T07:26:41;8.80;;;7.88;;
20393;SDS011;10356;50.544;9.642;2023-08-30T07:29:08;8.63;;;7.80;;
20393;SDS011;10356;50.544;9.642;2023-08-30T07:31:35;8.00;;;7.15;;
20393;SDS011;10356;50.544;9.642;2023-08-30T07:34:01;9.60;;;7.75;;
20393;SDS011;10356;50.544;9.642;2023-08-30T07:36:29;8.48;;;7.57;;
20393;SDS011;10356;50.544;9.642;2023-08-30T07:38:57;10.70;;;7.40;;
20393;SDS011;10356;50.544;9.642;2023-08-30T07:41:24;10.00;;;7.90;;
20393;SDS011;10356;50.544;9.642;2023-08-30T07:43:52;9.52;;;7.68;;
20393;SDS011;10356;50.544;9.642;2023-08-30T07:46:18;10.68;;;7.28;;
20393;SDS011;10356;50.544;9.642;2023-08-30T07:48:45;9.18;;;7.88;;
20393;SDS011;10356;50.544;9.642;2023-08-30T07:51:11;10.45;;;7.95;;
20393;SDS011;10356;50.544;9.642;2023-08-30T07:53:37;9.07;;;7.40;;
20393;SDS011;10356;50.544;9.642;2023-08-30T07:56:04;10.32;;;7.88;;
20393;SDS011;10356;50.544;9.642;2023-08-30T07:58:30;10.02;;;7.88;;
20393;SDS011;10356;50.544;9.642;2023-08-30T08:00:58;9.77;;;6.88;;
20393;SDS011;10356;50.544;9.642;2023-08-30T08:03:25;9.60;;;6.53;;
20393;SDS011;10356;50.544;9.642;2023-08-30T08:05:51;8.52;;;6.70;;
20393;SDS011;10356;50.544;9.642;2023-08-30T08:08:18;10.75;;;8.15;;
20393;SDS011;10356;50.544;9.642;2023-08-30T08:10:44;10.80;;;8.30;;
20393;SDS011;10356;50.544;9.642;2023-08-30T08:13:11;10.00;;;8.15;;
20393;SDS011;10356;50.544;9.642;2023-08-30T08:15:38;13.43;;;9.32;;
20393;SDS011;10356;50.544;9.642;2023-08-30T08:18:06;11.32;;;9.45;;
20393;SDS011;10356;50.544;9.642;2023-08-30T08:20:33;11.65;;;9.77;;
20393;SDS011;10356;50.544;9.642;2023-08-30T08:22:59;12.60;;;9.20;;
20393;SDS011;10356;50.544;9.642;2023-08-30T08:25:26;11.15;;;9.68;;
20393;SDS011;10356;50.544;9.642;2023-08-30T08:27:52;13.05;;;8.93;;
20393;SDS011;10356;50.544;9.642;2023-08-30T08:30:19;12.68;;;8.90;;
20393;SDS011;10356;50.544;9.642;2023-08-30T08:32:46;9.82;;;8.57;;
20393;SDS011;10356;50.544;9.642;2023-08-30T08:35:15;11.68;;;8.38;;
20393;SDS011;10356;50.544;9.642;2023-08-30T08:37:56;9.38;;;8.02;;
20393;SDS011;10356;50.544;9.642;2023-08-30T08:40:23;11.95;;;7.57;;
20393;SDS011;10356;50.544;9.642;2023-08-30T08:42:49;10.73;;;7.90;;
20393;SDS011;10356;50.544;9.642;2023-08-30T08:45:17;8.93;;;7.38;;
20393;SDS011;10356;50.544;9.642;2023-08-30T08:47:45;9.32;;;7.38;;
20393;SDS011;10356;50.544;9.642;2023-08-30T08:50:12;9.85;;;7.65;;
20393;SDS011;10356;50.544;9.642;2023-08-30T08:52:40;8.25;;;7.45;;
20393;SDS011;10356;50.544;9.642;2023-08-30T08:55:07;12.65;;;8.00;;
20393;SDS011;10356;50.544;9.642;2023-08-30T08:57:34;8.52;;;7.63;;
20393;SDS011;10356;50.544;9.642;2023-08-30T09:00:04;9.57;;;7.50;;
20393;SDS011;10356;50.544;9.642;2023-08-30T09:02:32;8.57;;;7.28;;
20393;SDS011;10356;50.544;9.642;2023-08-30T09:04:59;11.75;;;7.95;;
20393;SDS011;10356;50.544;9.642;2023-08-30T09:07:26;10.52;;;7.25;;
20393;SDS011;10356;50.544;9.642;2023-08-30T09:09:56;8.60;;;6.68;;
20393;SDS011;10356;50.544;9.642;2023-08-30T09:12:23;7.78;;;6.95;;
20393;SDS011;10356;50.544;9.642;2023-08-30T09:14:52;9.55;;;7.63;;
20393;SDS011;10356;50.544;9.642;2023-08-30T09:17:19;8.90;;;7.70;;
20393;SDS011;10356;50.544;9.642;2023-08-30T09:19:45;7.75;;;7.03;;
20393;SDS011;10356;50.544;9.642;2023-08-30T09:22:12;7.57;;;6.75;;
20393;SDS011;10356;50.544;9.642;2023-08-30T09:24:39;9.77;;;6.82;;
20393;SDS011;10356;50.544;9.642;2023-08-30T09:27:07;7.28;;;6.50;;
20393;SDS011;10356;50.544;9.642;2023-08-30T09:29:34;7.35;;;5.85;;
20393;SDS011;10356;50.544;9.642;2023-08-30T09:32:00;7.20;;;5.97;;
20393;SDS011;10356;50.544;9.642;2023-08-30T09:34:27;5.85;;;5.25;;
20393;SDS011;10356;50.544;9.642;2023-08-30T09:36:54;7.30;;;5.88;;
20393;SDS011;10356;50.544;9.642;2023-08-30T09:39:21;6.65;;;5.03;;
20393;SDS011;10356;50.544;9.642;2023-08-30T09:41:48;6.72;;;5.40;;
20393;SDS011;10356;50.544;9.642;2023-08-30T09:44:17;6.22;;;5.07;;
20393;SDS011;10356;50.544;9.642;2023-08-30T09:46:45;5.97;;;5.20;;
20393;SDS011;10356;50.544;9.642;2023-08-30T09:49:15;7.90;;;5.07;;
20393;SDS011;10356;50.544;9.642;2023-08-30T09:51:44;13.30;;;5.88;;
20393;SDS011;10356;50.544;9.642;2023-08-30T09:54:13;7.30;;;5.70;;
20393;SDS011;10356;50.544;9.642;2023-08-30T09:56:42;5.68;;;4.32;;
20393;SDS011;10356;50.544;9.642;2023-08-30T09:59:09;5.97;;;5.00;;
20393;SDS011;10356;50.544;9.642;2023-08-30T10:01:38;7.40;;;5.15;;
20393;SDS011;10356;50.544;9.642;2023-08-30T10:04:06;4.53;;;3.75;;
20393;SDS011;10356;50.544;9.642;2023-08-30T10:06:33;5.78;;;4.18;;
20393;SDS011;10356;50.544;9.642;2023-08-30T10:09:01;5.50;;;4.97;;
20393;SDS011;10356;50.544;9.642;2023-08-30T10:11:28;5.72;;;5.13;;
20393;SDS011;10356;50.544;9.642;2023-08-30T10:13:56;5.68;;;4.40;;
20393;SDS011;10356;50.544;9.642;2023-08-30T10:16:24;4.97;;;4.13;;
20393;SDS011;10356;50.544;9.642;2023-08-30T10:18:58;5.07;;;4.38;;
20393;SDS011;10356;50.544;9.642;2023-08-30T10:21:29;5.53;;;3.60;;
20393;SDS011;10356;50.544;9.642;2023-08-30T10:23:57;5.15;;;4.43;;
20393;SDS011;10356;50.544;9.642;2023-08-30T10:26:25;6.85;;;4.60;;
20393;SDS011;10356;50.544;9.642;2023-08-30T10:28:54;7.22;;;4.60;;
20393;SDS011;10356;50.544;9.642;2023-08-30T10:31:23;6.10;;;4.43;;
20393;SDS011;10356;50.544;9.642;2023-08-30T10:33:50;6.68;;;4.32;;
20393;SDS011;10356;50.544;9.642;2023-08-30T10:36:21;6.57;;;4.47;;
20393;SDS011;10356;50.544;9.642;2023-08-30T10:38:49;6.15;;;4.07;;
20393;SDS011;10356;50.544;9.642;2023-08-30T10:41:19;5.63;;;4.50;;
20393;SDS011;10356;50.544;9.642;2023-08-30T10:43:49;5.28;;;3.90;;
20393;SDS011;10356;50.544;9.642;2023-08-30T10:46:17;5.72;;;4.63;;
20393;SDS011;10356;50.544;9.642;2023-08-30T10:48:54;4.85;;;4.03;;
20393;SDS011;10356;50.544;9.642;2023-08-30T10:51:35;4.15;;;3.75;;
20393;SDS011;10356;50.544;9.642;2023-08-30T10:54:09;6.82;;;3.83;;
20393;SDS011;10356;50.544;9.642;2023-08-30T10:56:45;5.28;;;3.83;;
20393;SDS011;10356;50.544;9.642;2023-08-30T10:59:15;7.22;;;4.30;;
20393;SDS011;10356;50.544;9.642;2023-08-30T11:01:42;4.22;;;3.25;;
20393;SDS011;10356;50.544;9.642;2023-08-30T11:04:09;4.35;;;3.75;;
20393;SDS011;10356;50.544;9.642;2023-08-30T11:06:39;4.88;;;3.40;;
20393;SDS011;10356;50.544;9.642;2023-08-30T11:09:05;5.35;;;3.65;;
20393;SDS011;10356;50.544;9.642;2023-08-30T11:11:33;4.78;;;3.72;;
20393;SDS011;10356;50.544;9.642;2023-08-30T11:14:03;5.88;;;3.67;;
20393;SDS011;10356;50.544;9.642;2023-08-30T11:16:30;3.35;;;3.03;;
20393;SDS011;10356;50.544;9.642;2023-08-30T11:18:57;3.83;;;3.15;;
20393;SDS011;10356;50.544;9.642;2023-08-30T11:21:23;5.45;;;3.42;;
20393;SDS011;10356;50.544;9.642;2023-08-30T11:23:52;3.60;;;3.03;;
20393;SDS011;10356;50.544;9.642;2023-08-30T11:26:18;3.00;;;2.78;;
20393;SDS011;10356;50.544;9.642;2023-08-30T11:28:45;4.05;;;3.03;;
20393;SDS011;10356;50.544;9.642;2023-08-30T11:31:17;5.18;;;3.13;;
20393;SDS011;10356;50.544;9.642;2023-08-30T11:33:49;3.10;;;2.80;;
20393;SDS011;10356;50.544;9.642;2023-08-30T11:36:16;2.88;;;2.47;;
20393;SDS011;10356;50.544;9.642;2023-08-30T11:38:44;6.90;;;2.97;;
20393;SDS011;10356;50.544;9.642;2023-08-30T11:41:13;3.42;;;2.83;;
20393;SDS011;10356;50.544;9.642;2023-08-30T11:43:40;4.47;;;2.67;;
20393;SDS011;10356;50.544;9.642;2023-08-30T11:46:07;4.88;;;2.85;;
20393;SDS011;10356;50.544;9.642;2023-08-30T11:48:34;3.63;;;2.60;;
20393;SDS011;10356;50.544;9.642;2023-08-30T11:51:01;3.03;;;2.63;;
20393;SDS011;10356;50.544;9.642;2023-08-30T11:53:28;4.32;;;3.00;;
20393;SDS011;10356;50.544;9.642;2023-08-30T11:55:55;3.75;;;3.00;;
20393;SDS011;10356;50.544;9.642;2023-08-30T11:58:23;3.35;;;2.35;;
20393;SDS011;10356;50.544;9.642;2023-08-30T12:00:50;4.65;;;2.50;;
20393;SDS011;10356;50.544;9.642;2023-08-30T12:03:19;5.18;;;2.70;;
20393;SDS011;10356;50.544;9.642;2023-08-30T12:05:46;2.63;;;2.40;;
20393;SDS011;10356;50.544;9.642;2023-08-30T12:08:18;3.75;;;2.47;;
20393;SDS011;10356;50.544;9.642;2023-08-30T12:10:46;3.05;;;2.70;;
20393;SDS011;10356;50.544;9.642;2023-08-30T12:13:23;2.40;;;2.20;;
20393;SDS011;10356;50.544;9.642;2023-08-30T12:15:50;5.30;;;2.97;;
20393;SDS011;10356;50.544;9.642;2023-08-30T12:18:17;4.43;;;2.40;;
20393;SDS011;10356;50.544;9.642;2023-08-30T12:20:53;2.70;;;2.50;;
20393;SDS011;10356;50.544;9.642;2023-08-30T12:23:21;3.72;;;2.58;;
20393;SDS011;10356;50.544;9.642;2023-08-30T12:25:58;4.22;;;2.70;;
20393;SDS011;10356;50.544;9.642;2023-08-30T12:28:30;2.70;;;2.42;;
20393;SDS011;10356;50.544;9.642;2023-08-30T12:30:57;4.55;;;2.28;;
20393;SDS011;10356;50.544;9.642;2023-08-30T12:33:24;4.00;;;2.80;;
20393;SDS011;10356;50.544;9.642;2023-08-30T12:35:51;3.92;;;2.42;;
20393;SDS011;10356;50.544;9.642;2023-08-30T12:38:18;4.78;;;2.75;;
20393;SDS011;10356;50.544;9.642;2023-08-30T12:40:45;3.15;;;2.80;;
20393;SDS011;10356;50.544;9.642;2023-08-30T12:43:12;4.38;;;2.40;;
20393;SDS011;10356;50.544;9.642;2023-08-30T12:45:40;2.60;;;2.40;;
20393;SDS011;10356;50.544;9.642;2023-08-30T12:48:08;4.50;;;2.38;;
20393;SDS011;10356;50.544;9.642;2023-08-30T12:50:35;5.00;;;2.10;;
20393;SDS011;10356;50.544;9.642;2023-08-30T12:53:03;3.45;;;2.60;;
20393;SDS011;10356;50.544;9.642;2023-08-30T12:55:30;2.58;;;2.05;;
20393;SDS011;10356;50.544;9.642;2023-08-30T12:57:57;3.22;;;2.15;;
20393;SDS011;10356;50.544;9.642;2023-08-30T13:00:22;3.47;;;2.80;;
20393;SDS011;10356;50.544;9.642;2023-08-30T13:02:50;4.15;;;2.35;;
20393;SDS011;10356;50.544;9.642;2023-08-30T13:05:17;3.88;;;2.65;;
20393;SDS011;10356;50.544;9.642;2023-08-30T13:07:43;3.88;;;2.63;;
20393;SDS011;10356;50.544;9.642;2023-08-30T13:10:10;3.13;;;2.50;;
20393;SDS011;10356;50.544;9.642;2023-08-30T13:12:37;4.15;;;2.42;;
20393;SDS011;10356;50.544;9.642;2023-08-30T13:15:05;5.72;;;2.33;;
20393;SDS011;10356;50.544;9.642;2023-08-30T13:17:32;4.68;;;2.05;;
20393;SDS011;10356;50.544;9.642;2023-08-30T13:20:00;4.20;;;2.22;;
20393;SDS011;10356;50.544;9.642;2023-08-30T13:22:27;2.10;;;1.90;;
20393;SDS011;10356;50.544;9.642;2023-08-30T13:24:53;4.60;;;2.05;;
20393;SDS011;10356;50.544;9.642;2023-08-30T13:27:20;2.45;;;2.15;;
20393;SDS011;10356;50.544;9.642;2023-08-30T13:29:47;3.33;;;2.17;;
20393;SDS011;10356;50.544;9.642;2023-08-30T13:32:14;3.85;;;1.92;;
20393;SDS011;10356;50.544;9.642;2023-08-30T13:34:40;2.53;;;2.33;;
20393;SDS011;10356;50.544;9.642;2023-08-30T13:37:10;2.38;;;2.17;;
20393;SDS011;10356;50.544;9.642;2023-08-30T13:39:36;2.83;;;2.28;;
20393;SDS011;10356;50.544;9.642;2023-08-30T13:42:03;3.42;;;2.30;;
20393;SDS011;10356;50.544;9.642;2023-08-30T13:44:30;3.22;;;2.30;;
20393;SDS011;10356;50.544;9.642;2023-08-30T13:46:57;5.80;;;2.10;;
20393;SDS011;10356;50.544;9.642;2023-08-30T13:49:23;3.65;;;2.28;;
20393;SDS011;10356;50.544;9.642;2023-08-30T13:51:50;3.40;;;2.72;;
20393;SDS011;10356;50.544;9.642;2023-08-30T13:54:17;4.25;;;2.53;;
20393;SDS011;10356;50.544;9.642;2023-08-30T13:56:44;2.60;;;2.35;;
20393;SDS011;10356;50.544;9.642;2023-08-30T13:59:10;2.45;;;2.22;;
20393;SDS011;10356;50.544;9.642;2023-08-30T14:01:37;2.85;;;2.40;;
20393;SDS011;10356;50.544;9.642;2023-08-30T14:04:03;3.00;;;2.13;;
20393;SDS011;10356;50.544;9.642;2023-08-30T14:06:30;3.28;;;2.50;;
20393;SDS011;10356;50.544;9.642;2023-08-30T14:08:57;3.10;;;2.20;;
20393;SDS011;10356;50.544;9.642;2023-08-30T14:11:25;3.45;;;2.55;;
20393;SDS011;10356;50.544;9.642;2023-08-30T14:13:51;2.97;;;2.40;;
20393;SDS011;10356;50.544;9.642;2023-08-30T14:16:18;6.90;;;2.72;;
20393;SDS011;10356;50.544;9.642;2023-08-30T14:18:44;2.42;;;2.22;;
20393;SDS011;10356;50.544;9.642;2023-08-30T14:21:11;3.63;;;2.50;;
20393;SDS011;10356;50.544;9.642;2023-08-30T14:23:38;2.88;;;2.47;;
20393;SDS011;10356;50.544;9.642;2023-08-30T14:26:05;2.72;;;1.98;;
20393;SDS011;10356;50.544;9.642;2023-08-30T14:28:36;2.42;;;2.22;;
20393;SDS011;10356;50.544;9.642;2023-08-30T14:31:03;3.10;;;2.10;;
20393;SDS011;10356;50.544;9.642;2023-08-30T14:33:32;3.95;;;2.40;;
20393;SDS011;10356;50.544;9.642;2023-08-30T14:35:59;2.92;;;2.00;;
20393;SDS011;10356;50.544;9.642;2023-08-30T14:38:26;2.38;;;2.08;;
20393;SDS011;10356;50.544;9.642;2023-08-30T14:40:56;3.97;;;2.17;;